Time;durP1;ratioP1;P1;durP2;ratioP2;P2;SDS_P1;SDS_P2;PMS_P1;PMS_P2;Temp;Humidity;BMP_temperature;BMP_pressure;BME280_temperature;BME280_humidity;BME280_pressure;Samples;Min_cycle;Max_cycle;Signal;HPM_P1;HPM_P2
2022/12/26 00:01:59;;;;;;;80.72;22.73;;;;;;;;;;5076519;28;20451;-76
2022/12/26 00:04:25;;;;;;;82.32;23.75;;;;;;;;;;5093547;28;20415;-76
2022/12/26 00:06:51;;;;;;;82.53;22.83;;;;;;;;;;5091778;28;20416;-77
2022/12/26 00:09:17;;;;;;;86.38;23.10;;;;;;;;;;5076064;28;20411;-76
2022/12/26 00:11:43;;;;;;;82.38;23.45;;;;;;;;;;5092367;28;20694;-76
2022/12/26 00:14:12;;;;;;;98.15;25.35;;;9.40;99.90;;;;;;5092218;28;20420;-77
2022/12/26 00:16:39;;;;;;;93.18;25.30;;;;;;;;;;5092473;28;20420;-76
2022/12/26 00:19:05;;;;;;;106.43;26.50;;;;;;;;;;5068095;28;20992;-76
2022/12/26 00:21:32;;;;;;;95.40;25.05;;;;;;;;;;5094079;28;20396;-76
2022/12/26 00:23:58;;;;;;;102.68;26.38;;;;;;;;;;5091512;28;20416;-76
2022/12/26 00:26:27;;;;;;;110.47;26.75;;;9.00;99.90;;;;;;5074443;28;20467;-76
2022/12/26 00:28:53;;;;;;;97.10;26.70;;;;;;;;;;5090049;28;20445;-77
2022/12/26 00:31:24;;;;;;;102.70;27.05;;;;;;;;;;5074473;28;20738;-77
2022/12/26 00:33:50;;;;;;;95.45;26.80;;;;;;;;;;5074851;28;20424;-77
2022/12/26 00:36:18;;;;;;;99.28;26.52;;;;;;;;;;5092714;28;20904;-76
2022/12/26 00:38:44;;;;;;;99.78;27.38;;;;;;;;;;5091992;28;20915;-76
2022/12/26 00:41:14;;;;;;;101.70;28.25;;;9.10;99.90;;;;;;5092708;28;20408;-76
2022/12/26 00:43:40;;;;;;;102.20;29.00;;;;;;;;;;5072928;28;20450;-76
2022/12/26 00:46:07;;;;;;;97.80;26.65;;;;;;;;;;5070853;28;20444;-76
2022/12/26 00:48:33;;;;;;;110.65;28.35;;;;;;;;;;5086080;28;20925;-76
2022/12/26 00:50:59;;;;;;;103.78;28.10;;;;;;;;;;5074992;28;20412;-76
2022/12/26 00:53:26;;;;;;;99.90;27.75;;;;;;;;;;5089155;28;20424;-77
2022/12/26 00:55:52;;;;;;;97.32;27.52;;;;;;;;;;5082012;28;20414;-76
2022/12/26 00:58:19;;;;;;;103.97;27.92;;;;;;;;;;5062718;28;20412;-76
2022/12/26 01:00:45;;;;;;;106.35;28.92;;;;;;;;;;5093489;28;20392;-76
2022/12/26 01:03:12;;;;;;;108.97;29.80;;;;;;;;;;5084778;28;20424;-76
2022/12/26 01:05:42;;;;;;;97.97;27.67;;;;;;;;;;5093556;28;20397;-76
2022/12/26 01:08:08;;;;;;;104.57;29.23;;;;;;;;;;5092847;28;20449;-76
2022/12/26 01:10:34;;;;;;;97.50;28.95;;;;;;;;;;5090564;28;20935;-76
2022/12/26 01:13:00;;;;;;;101.60;28.92;;;;;;;;;;5092080;28;20919;-76
2022/12/26 01:15:26;;;;;;;88.45;27.65;;;;;;;;;;5091439;28;20781;-76
2022/12/26 01:17:52;;;;;;;86.80;26.88;;;;;;;;;;5092617;28;20409;-77
2022/12/26 01:20:18;;;;;;;92.40;28.02;;;;;;;;;;5093377;28;20392;-77
2022/12/26 01:22:44;;;;;;;94.37;28.03;;;;;;;;;;5074511;28;20485;-77
2022/12/26 01:25:11;;;;;;;90.53;28.15;;;;;;;;;;5061024;28;20417;-76
2022/12/26 01:27:37;;;;;;;92.63;28.23;;;;;;;;;;5077899;28;20419;-77
2022/12/26 01:30:03;;;;;;;90.38;26.13;;;;;;;;;;5077677;28;20801;-77
2022/12/26 01:32:29;;;;;;;81.53;25.67;;;;;;;;;;5080086;28;20410;-77
2022/12/26 01:34:55;;;;;;;84.47;26.20;;;;;;;;;;5096196;28;20941;-76
2022/12/26 01:37:25;;;;;;;86.77;26.47;;;;;;;;;;5092571;28;20424;-76
2022/12/26 01:39:51;;;;;;;85.28;25.75;;;;;;;;;;5095883;28;20416;-76
2022/12/26 01:42:19;;;;;;;88.50;26.08;;;;;;;;;;5096211;28;20423;-76
2022/12/26 01:45:03;;;;;;;86.13;25.90;;;;;;;;;;5077045;28;20507;-76
2022/12/26 01:47:50;;;;;;;87.57;26.10;;;9.00;99.90;;;;;;5094302;28;20412;-76
2022/12/26 01:50:27;;;;;;;87.97;25.30;;;;;;;;;;5078087;27;20918;-77
2022/12/26 01:52:54;;;;;;;86.10;25.30;;;;;;;;;;5096489;28;20421;-76
2022/12/26 01:55:21;;;;;;;89.97;26.00;;;8.80;99.90;;;;;;5119343;27;20744;-76
2022/12/26 01:57:54;;;;;;;87.93;26.60;;;8.90;99.90;;;;;;5093835;28;20404;-76
2022/12/26 02:00:20;;;;;;;86.07;25.58;;;;;;;;;;5085555;28;20874;-77
2022/12/26 02:05:34;;;;;;;93.10;26.38;;;;;;;;;;5092824;28;20469;-76
2022/12/26 02:08:03;;;;;;;77.80;24.63;;;;;;;;;;5085925;28;20416;-76
2022/12/26 02:10:34;;;;;;;69.38;24.15;;;8.30;99.90;;;;;;5094970;28;20416;-76
2022/12/26 02:13:00;;;;;;;67.93;23.38;;;;;;;;;;5095535;28;20424;-76
2022/12/26 02:15:26;;;;;;;72.80;23.80;;;;;;;;;;5095488;28;20469;-76
2022/12/26 02:17:52;;;;;;;56.17;21.45;;;;;;;;;;5092577;28;20797;-76
2022/12/26 02:20:28;;;;;;;58.15;21.42;;;8.90;99.90;;;;;;5094802;28;20413;-76
2022/12/26 02:23:13;;;;;;;60.45;23.02;;;;;;;;;;5095033;28;21259;-76
2022/12/26 02:25:45;;;;;;;54.25;22.42;;;;;;;;;;5094142;28;20430;-75
2022/12/26 02:28:17;;;;;;;56.88;23.50;;;;;;;;;;5076449;28;20420;-75
2022/12/26 02:30:43;;;;;;;58.20;23.47;;;;;;;;;;5093674;28;20412;-76
2022/12/26 02:33:12;;;;;;;57.03;23.85;;;;;;;;;;5094596;28;20485;-76
2022/12/26 02:35:41;;;;;;;58.30;23.48;;;;;;;;;;5079085;28;20403;-76
2022/12/26 02:38:24;;;;;;;52.83;23.00;;;;;;;;;;5092772;28;20416;-76
2022/12/26 02:40:55;;;;;;;56.42;24.38;;;;;;;;;;5074482;28;20412;-76
2022/12/26 02:47:04;;;;;;;57.93;24.93;;;;;;;;;;5015767;28;20485;-76
2022/12/26 03:15:03;;;;;;;69.70;29.95;;;;;;;;;;5093045;28;20755;-76
2022/12/26 03:17:35;;;;;;;65.72;29.00;;;;;;;;;;5077342;28;20817;-76
2022/12/26 03:20:09;;;;;;;67.30;29.55;;;9.50;99.90;;;;;;5085787;28;20421;-76
2022/12/26 03:22:40;;;;;;;76.00;31.20;;;;;;;;;;5072344;28;20412;-76
2022/12/26 03:28:00;;;;;;;74.10;30.83;;;;;;;;;;5092485;28;20776;-76
2022/12/26 03:35:56;;;;;;;68.03;29.52;;;;;;;;;;5090628;28;20470;-76
2022/12/26 03:38:24;;;;;;;62.92;28.55;;;;;;;;;;5093853;28;20420;-76
2022/12/26 04:46:30;;;;;;;56.87;28.40;;;9.10;99.90;;;;;;5082636;28;20903;-77
2022/12/26 04:51:42;;;;;;;52.28;27.15;;;;;;;;;;5091065;28;20507;-78
2022/12/26 04:54:08;;;;;;;52.87;26.97;;;;;;;;;;5089956;28;20428;-77
2022/12/26 04:56:34;;;;;;;51.42;27.50;;;;;;;;;;5085293;28;20450;-77
2022/12/26 04:59:01;;;;;;;47.42;26.05;;;;;;;;;;5073687;28;20423;-78
2022/12/26 05:10:00;;;;;;;49.70;27.10;;;;;;;;;;5070092;28;20517;-77
2022/12/26 05:12:26;;;;;;;49.70;26.70;;;;;;;;;;5071436;28;20418;-77
2022/12/26 05:14:52;;;;;;;49.20;27.02;;;;;;;;;;5085535;28;20426;-77
2022/12/26 05:31:04;;;;;;;45.28;25.65;;;;;;;;;;5078453;28;20454;-77
2022/12/26 05:36:19;;;;;;;42.43;25.00;;;9.30;99.90;;;;;;5092992;28;20548;-77
2022/12/26 05:38:45;;;;;;;43.45;25.60;;;;;;;;;;5093844;28;20987;-77
2022/12/26 05:41:11;;;;;;;41.20;24.63;;;;;;;;;;5087990;28;20812;-77
2022/12/26 05:43:37;;;;;;;41.97;25.40;;;;;;;;;;5092158;28;20494;-77
2022/12/26 05:46:03;;;;;;;41.10;25.77;;;;;;;;;;5091847;28;20424;-77
2022/12/26 05:48:29;;;;;;;39.47;24.53;;;;;;;;;;5091439;28;20453;-77
2022/12/26 05:51:02;;;;;;;39.92;25.33;;;;;;;;;;5056190;28;20859;-77
2022/12/26 05:53:28;;;;;;;42.30;25.42;;;;;;;;;;5074481;28;20430;-77
2022/12/26 05:55:55;;;;;;;38.57;24.57;;;;;;;;;;5089779;28;20434;-76
2022/12/26 05:58:21;;;;;;;38.08;24.30;;;;;;;;;;5087073;28;20411;-77
2022/12/26 06:00:47;;;;;;;38.25;23.13;;;;;;;;;;5057030;28;20744;-77
2022/12/26 06:03:15;;;;;;;39.27;23.77;;;;;;;;;;5075133;28;20434;-77
2022/12/26 06:05:41;;;;;;;36.83;22.95;;;;;;;;;;5076910;28;20777;-76
2022/12/26 06:08:07;;;;;;;36.73;23.03;;;;;;;;;;5075340;28;20416;-77
2022/12/26 06:10:33;;;;;;;35.10;22.45;;;;;;;;;;5092283;28;20970;-77
2022/12/26 06:13:00;;;;;;;34.65;22.20;;;;;;;;;;5055388;28;20412;-77
2022/12/26 06:15:26;;;;;;;34.38;21.50;;;;;;;;;;5074937;28;20415;-77
2022/12/26 06:17:53;;;;;;;33.88;21.80;;;;;;;;;;5086973;28;20414;-77
2022/12/26 06:20:20;;;;;;;34.47;22.38;;;;;;;;;;5092098;28;20397;-77
2022/12/26 06:22:46;;;;;;;35.43;21.33;;;;;;;;;;5089439;28;20424;-77
2022/12/26 06:25:12;;;;;;;35.90;22.45;;;;;;;;;;5056352;28;20767;-77
2022/12/26 06:27:38;;;;;;;39.78;23.52;;;;;;;;;;5074981;28;20398;-77
2022/12/26 06:30:04;;;;;;;35.33;22.13;;;;;;;;;;5090152;28;20915;-77
2022/12/26 06:32:30;;;;;;;36.28;21.83;;;;;;;;;;5089921;28;20424;-77
2022/12/26 06:34:56;;;;;;;32.40;21.55;;;;;;;;;;5062920;28;20933;-77
2022/12/26 06:37:25;;;;;;;34.78;21.58;;;;;;;;;;5090898;28;20410;-77
2022/12/26 06:39:51;;;;;;;35.20;20.55;;;;;;;;;;5088287;28;20414;-77
2022/12/26 06:42:17;;;;;;;32.28;20.42;;;;;;;;;;5071441;28;20418;-77
2022/12/26 06:44:43;;;;;;;28.57;18.67;;;;;;;;;;5072992;28;20447;-77
2022/12/26 06:47:09;;;;;;;29.90;19.08;;;;;;;;;;5074321;28;20421;-77
2022/12/26 06:49:36;;;;;;;31.92;18.80;;;;;;;;;;5089455;28;20558;-77
2022/12/26 06:52:02;;;;;;;39.73;20.27;;;;;;;;;;5065591;28;20432;-77
2022/12/26 06:54:28;;;;;;;29.05;18.95;;;;;;;;;;5065797;28;20422;-77
2022/12/26 06:56:54;;;;;;;28.50;18.90;;;;;;;;;;5088325;28;20439;-77
2022/12/26 06:59:20;;;;;;;46.60;20.50;;;;;;;;;;5090387;28;20414;-77
2022/12/26 07:01:46;;;;;;;29.17;19.30;;;;;;;;;;5087597;28;20410;-77
2022/12/26 07:04:13;;;;;;;27.42;17.45;;;;;;;;;;5090090;28;20433;-77
2022/12/26 07:06:39;;;;;;;29.65;18.23;;;;;;;;;;5084492;28;20414;-77
2022/12/26 07:09:06;;;;;;;28.73;18.17;;;;;;;;;;5091253;28;20905;-76
2022/12/26 07:11:34;;;;;;;29.20;18.33;;;;;;;;;;5075329;28;20394;-76
2022/12/26 07:14:00;;;;;;;26.58;17.00;;;;;;;;;;5091408;28;20887;-76
2022/12/26 07:16:27;;;;;;;26.25;16.95;;;;;;;;;;5089949;28;20410;-76
2022/12/26 07:18:53;;;;;;;27.05;16.38;;;;;;;;;;5090979;28;20440;-76
2022/12/26 07:21:20;;;;;;;24.83;16.27;;;;;;;;;;5092927;28;20878;-76
2022/12/26 07:23:46;;;;;;;24.02;15.00;;;;;;;;;;5074659;28;20410;-77
2022/12/26 07:26:12;;;;;;;25.23;14.95;;;;;;;;;;5056891;28;20518;-77
2022/12/26 07:28:38;;;;;;;26.60;14.52;;;;;;;;;;5072930;28;20400;-77
2022/12/26 07:33:08;;;;;;;21.42;14.02;;;;;;;;;;5110131;27;20365;-76
2022/12/26 07:35:34;;;;;;;22.70;13.93;;;;;;;;;;5108192;28;20433;-77
2022/12/26 07:38:00;;;;;;;21.73;12.90;;;;;;;;;;5105596;28;20453;-77
2022/12/26 07:40:28;;;;;;;18.77;12.65;;;;;;;;;;5109067;28;20397;-76
2022/12/26 07:42:54;;;;;;;19.08;11.65;;;;;;;;;;5157632;27;20444;-77
2022/12/26 07:45:20;;;;;;;19.25;11.63;;;;;;;;;;5104507;28;20425;-76
2022/12/26 07:47:46;;;;;;;19.27;12.00;;;;;;;;;;5107277;28;20464;-76
2022/12/26 07:50:12;;;;;;;17.73;11.13;;;;;;;;;;5117336;28;20985;-76
2022/12/26 07:52:38;;;;;;;15.48;10.73;;;;;;;;;;5088692;28;20899;-76
2022/12/26 07:55:04;;;;;;;15.17;10.27;;;;;;;;;;5090722;28;20420;-76
2022/12/26 07:57:30;;;;;;;16.25;10.15;;;;;;;;;;5106513;28;20409;-76
2022/12/26 07:59:56;;;;;;;16.17;9.50;;;;;;;;;;5107596;28;20451;-76
2022/12/26 08:02:22;;;;;;;15.23;9.90;;;;;;;;;;5110488;28;20773;-75
2022/12/26 08:04:49;;;;;;;15.80;9.80;;;;;;;;;;5103635;28;20417;-76
2022/12/26 08:07:15;;;;;;;18.15;9.70;;;;;;;;;;5105345;28;20416;-76
2022/12/26 08:09:43;;;;;;;15.35;9.90;;;;;;;;;;5107800;28;20417;-75
2022/12/26 08:12:09;;;;;;;15.40;9.80;;;;;;;;;;5138809;27;20489;-75
2022/12/26 08:14:39;;;;;;;15.85;9.23;;;;;;;;;;5105243;28;20470;-75
2022/12/26 08:17:05;;;;;;;15.35;8.90;;;;;;;;;;5103498;28;20554;-77
2022/12/26 08:19:31;;;;;;;14.25;8.75;;;;;;;;;;5107960;28;20450;-78
2022/12/26 08:21:57;;;;;;;14.82;8.40;;;;;;;;;;5119704;28;20960;-77
2022/12/26 08:24:23;;;;;;;13.60;8.90;;;;;;;;;;5101013;28;20417;-77
2022/12/26 08:26:49;;;;;;;14.13;8.48;;;;;;;;;;5090557;28;20418;-77
2022/12/26 08:29:16;;;;;;;16.73;8.70;;;;;;;;;;5087460;28;20422;-78
2022/12/26 08:31:42;;;;;;;15.55;8.93;;;;;;;;;;5086578;28;20979;-77
2022/12/26 08:34:08;;;;;;;16.88;8.95;;;;;;;;;;5079504;28;20495;-77
2022/12/26 08:36:35;;;;;;;16.35;9.32;;;;;;;;;;5086215;28;20421;-77
2022/12/26 08:39:01;;;;;;;16.10;8.77;;;;;;;;;;5069318;28;20484;-77
2022/12/26 08:41:27;;;;;;;14.32;8.63;;;;;;;;;;5080754;28;20455;-77
2022/12/26 08:43:53;;;;;;;17.17;10.52;;;;;;;;;;5074579;28;20420;-77
2022/12/26 08:46:20;;;;;;;15.10;8.73;;;;;;;;;;5070178;28;20483;-77
2022/12/26 08:48:47;;;;;;;17.75;9.43;;;;;;;;;;5072519;28;20937;-77
2022/12/26 08:51:23;;;;;;;14.30;8.73;;;;;;;;;;5072649;28;20426;-77
2022/12/26 08:53:50;;;;;;;15.50;9.63;;;;;;;;;;5063159;28;21097;-77
2022/12/26 08:56:17;;;;;;;18.80;10.60;;;;;;;;;;5069877;28;20423;-77
2022/12/26 08:58:43;;;;;;;16.90;9.73;;;;;;;;;;5056742;28;20832;-76
2022/12/26 09:01:11;;;;;;;19.00;9.75;;;;;;;;;;5071839;28;20779;-76
2022/12/26 09:03:38;;;;;;;17.75;9.52;;;;;;;;;;5100225;27;20420;-75
2022/12/26 09:06:04;;;;;;;17.58;10.05;;;;;;;;;;5055768;28;20771;-77
2022/12/26 09:08:30;;;;;;;17.10;9.52;;;;;;;;;;5073401;28;20446;-77
2022/12/26 09:11:02;;;;;;;16.42;9.80;;;;;;;;;;5054218;28;20434;-78
2022/12/26 09:13:28;;;;;;;16.93;9.50;;;;;;;;;;5107672;27;20528;-77
2022/12/26 09:15:54;;;;;;;16.90;8.82;;;;;;;;;;5053634;28;20427;-77
2022/12/26 09:18:20;;;;;;;15.57;8.90;;;;;;;;;;5088789;28;20415;-77
2022/12/26 09:20:49;;;;;;;15.00;8.90;;;;;;;;;;5069206;28;20431;-77
2022/12/26 09:23:15;;;;;;;14.93;8.67;;;;;;;;;;5072280;28;20481;-76
2022/12/26 09:25:41;;;;;;;15.57;7.05;;;;;;;;;;5068140;28;20779;-77
2022/12/26 09:28:07;;;;;;;12.30;6.85;;;;;;;;;;5053938;28;20411;-76
2022/12/26 09:30:34;;;;;;;12.93;6.45;;;;;;;;;;5057823;28;20503;-76
2022/12/26 09:33:00;;;;;;;15.00;6.35;;;;;;;;;;5069067;28;20428;-76
2022/12/26 09:35:26;;;;;;;12.82;5.88;;;;;;;;;;5097696;28;20447;-76
2022/12/26 09:37:52;;;;;;;15.40;5.15;;;;;;;;;;5066670;28;20410;-76
2022/12/26 09:40:20;;;;;;;13.38;4.80;;;;;;;;;;5070312;28;20469;-76
2022/12/26 09:43:01;;;;;;;15.13;4.10;;;;;;;;;;5051746;28;20427;-76
2022/12/26 09:45:41;;;;;;;18.58;4.07;;;;;;;;;;5068588;28;20418;-76
2022/12/26 09:48:18;;;;;;;13.55;3.40;;;;;;;;;;5068071;28;20427;-76
2022/12/26 09:50:48;;;;;;;16.42;3.13;;;;;;;;;;5054464;28;20423;-76
2022/12/26 09:53:24;;;;;;;11.03;2.80;;;9.00;99.90;;;;;;5068241;28;20427;-76
2022/12/26 09:55:59;;;;;;;14.07;2.65;;;;;;;;;;5069313;28;20422;-76
2022/12/26 09:58:56;;;;;;;11.57;2.70;;;8.30;99.90;;;;;;5076673;28;20509;-76
2022/12/26 10:01:24;;;;;;;10.63;2.63;;;;;;;;;;5050464;28;20436;-75
2022/12/26 10:03:51;;;;;;;15.90;2.83;;;;;;;;;;5071610;28;20403;-76
2022/12/26 10:06:19;;;;;;;15.93;2.78;;;;;;;;;;5068855;28;20419;-77
2022/12/26 10:08:45;;;;;;;15.30;2.75;;;;;;;;;;5058909;28;20414;-76
2022/12/26 10:11:24;;;;;;;12.50;3.13;;;;;;;;;;5067519;28;20420;-76
2022/12/26 10:13:53;;;;;;;10.55;2.33;;;;;;;;;;5068071;28;20419;-77
2022/12/26 10:16:22;;;;;;;15.00;3.17;;;;;;;;;;5050295;28;20443;-76
2022/12/26 10:18:48;;;;;;;14.60;2.90;;;;;;;;;;5058764;28;20432;-76
2022/12/26 10:21:14;;;;;;;12.68;2.33;;;;;;;;;;5063554;28;20443;-76
2022/12/26 10:23:47;;;;;;;14.68;2.67;;;7.80;99.90;;;;;;5045017;28;20467;-76
2022/12/26 10:26:17;;;;;;;14.93;2.40;;;;;;;;;;5080245;28;20567;-76
2022/12/26 10:28:52;;;;;;;12.88;2.60;;;8.10;99.90;;;;;;5046391;28;20424;-77
2022/12/26 10:31:18;;;;;;;12.48;2.47;;;;;;;;;;5104058;27;20464;-77
2022/12/26 10:33:46;;;;;;;13.52;2.60;;;;;;;;;;5051713;28;20419;-76
2022/12/26 10:36:16;;;;;;;11.02;2.20;;;;;;;;;;5063704;28;20477;-76
2022/12/26 10:38:43;;;;;;;12.80;2.30;;;;;;;;;;5053452;28;20466;-76
2022/12/26 10:41:17;;;;;;;9.40;1.90;;;;;;;;;;5044263;28;20422;-76
2022/12/26 10:43:44;;;;;;;10.27;1.80;;;;;;;;;;5033382;28;20411;-76
2022/12/26 10:46:22;;;;;;;9.85;2.05;;;;;;;;;;5030658;28;20426;-77
2022/12/26 10:48:49;;;;;;;9.50;1.98;;;;;;;;;;5035421;28;21004;-78
2022/12/26 10:51:15;;;;;;;8.25;1.60;;;;;;;;;;5043513;28;20442;-78
2022/12/26 10:53:43;;;;;;;6.78;1.70;;;;;;;;;;5031530;28;20424;-78
2022/12/26 10:56:09;;;;;;;10.13;2.00;;;;;;;;;;5059434;28;20451;-78
2022/12/26 10:58:37;;;;;;;10.27;1.90;;;;;;;;;;5050019;28;20611;-78
2022/12/26 11:01:23;;;;;;;11.35;2.08;;;;;;;;;;5047570;28;20915;-77
2022/12/26 11:03:56;;;;;;;11.02;2.17;;;;;;;;;;5044562;28;20937;-78
2022/12/26 11:06:52;;;;;;;13.30;2.40;;;;;;;;;;5049816;28;20415;-78
2022/12/26 11:09:30;;;;;;;11.35;2.33;;;;;;;;;;5029193;28;20938;-79
2022/12/26 11:11:56;;;;;;;10.23;2.05;;;;;;;;;;5045976;28;20507;-79
2022/12/26 11:14:28;;;;;;;10.02;2.00;;;;;;;;;;5035301;28;20415;-79
2022/12/26 11:16:55;;;;;;;14.30;2.05;;;;;;;;;;5042774;28;20421;-78
2022/12/26 11:19:26;;;;;;;10.48;1.98;;;;;;;;;;5052754;28;20428;-78
2022/12/26 11:21:52;;;;;;;9.40;2.03;;;;;;;;;;5051413;28;20429;-78
2022/12/26 11:24:19;;;;;;;9.15;2.13;;;;;;;;;;5035465;28;20421;-77
2022/12/26 11:26:45;;;;;;;11.30;2.80;;;;;;;;;;5033989;28;20415;-76
2022/12/26 11:29:19;;;;;;;9.57;2.05;;;;;;;;;;5047520;28;20431;-76
2022/12/26 11:31:59;;;;;;;7.63;1.75;;;;;;;;;;5047506;28;21070;-76
2022/12/26 11:34:35;;;;;;;8.85;1.83;;;;;;;;;;5062685;28;20607;-76
2022/12/26 11:37:02;;;;;;;10.68;2.00;;;;;;;;;;5048738;28;20419;-77
2022/12/26 11:39:31;;;;;;;8.23;2.03;;;;;;;;;;5046629;28;20557;-77
2022/12/26 11:41:57;;;;;;;11.43;2.15;;;;;;;;;;5050404;28;20427;-77
2022/12/26 11:44:32;;;;;;;8.73;2.30;;;;;;;;;;5046091;28;20418;-77
2022/12/26 11:47:01;;;;;;;11.90;2.13;;;;;;;;;;5057998;28;20429;-77
2022/12/26 11:49:33;;;;;;;13.20;2.50;;;;;;;;;;5050137;28;20510;-76
2022/12/26 11:52:00;;;;;;;12.73;2.40;;;;;;;;;;5051034;28;20430;-77
2022/12/26 11:54:31;;;;;;;11.57;2.60;;;;;;;;;;5067355;28;21045;-76
2022/12/26 11:57:03;;;;;;;11.50;2.83;;;;;;;;;;5067149;28;20428;-78
2022/12/26 11:59:30;;;;;;;11.47;2.20;;;;;;;;;;5050738;28;20415;-78
2022/12/26 12:02:16;;;;;;;10.85;2.30;;;;;;;;;;5064701;28;20930;-78
2022/12/26 12:04:42;;;;;;;12.30;2.70;;;;;;;;;;5049251;28;20479;-78
2022/12/26 12:07:11;;;;;;;15.70;2.53;;;;;;;;;;5063837;28;20905;-78
2022/12/26 12:09:56;;;;;;;13.48;2.90;;;;;;;;;;5060592;28;20427;-77
2022/12/26 12:12:46;;;;;;;15.20;2.58;;;7.80;99.90;;;;;;5067501;28;20447;-78
2022/12/26 12:15:21;;;;;;;13.27;3.20;;;;;;;;;;5063721;28;20427;-78
2022/12/26 12:18:17;;;;;;;32.30;13.27;;;;;;;;;;5064916;28;20415;-77
2022/12/26 12:21:06;;;;;;;29.20;11.45;;;;;;;;;;5067328;28;20419;-77
2022/12/26 12:23:42;;;;;;;26.27;9.90;;;;;;;;;;5052039;28;20416;-78
2022/12/26 12:26:23;;;;;;;17.75;4.85;;;;;;;;;;5069079;28;20416;-78
2022/12/26 12:29:12;;;;;;;17.70;7.40;;;;;;;;;;5069236;28;20486;-78
2022/12/26 12:31:52;;;;;;;31.30;14.70;;;;;;;;;;5076723;28;20434;-78
2022/12/26 12:34:46;;;;;;;18.80;7.00;;;7.90;99.90;;;;;;5064476;28;20419;-78
2022/12/26 12:37:12;;;;;;;16.37;4.30;;;;;;;;;;5098104;28;22441;-78
2022/12/26 12:39:51;;;;;;;13.48;2.72;;;;;;;;;;5069162;28;20420;-78
2022/12/26 12:42:47;;;;;;;15.00;2.75;;;7.30;99.90;;;;;;5071807;28;20982;-78
2022/12/26 12:45:19;;;;;;;14.75;2.70;;;;;;;;;;5097777;28;20934;-78
2022/12/26 12:47:58;;;;;;;14.68;2.67;;;;;;;;;;5046519;28;20432;-77
2022/12/26 12:50:29;;;;;;;14.63;2.90;;;;;;;;;;5066413;28;20924;-77
2022/12/26 12:53:22;;;;;;;11.25;2.60;;;;;;;;;;5054886;28;20435;-78
2022/12/26 12:56:00;;;;;;;15.80;3.05;;;;;;;;;;5066302;28;20503;-78
2022/12/26 12:59:04;;;;;;;13.73;2.58;;;7.70;99.90;;;;;;5102571;28;20760;-79
2022/12/26 13:01:34;;;;;;;12.70;2.75;;;;;;;;;;5063470;28;20926;-78
2022/12/26 13:04:09;;;;;;;12.45;2.38;;;;;;;;;;5050141;28;20899;-79
2022/12/26 13:06:41;;;;;;;13.13;2.47;;;;;;;;;;5063376;28;20428;-79
2022/12/26 13:09:19;;;;;;;12.60;2.97;;;;;;;;;;5056389;28;20423;-79
2022/12/26 13:11:52;;;;;;;12.77;2.90;;;;;;;;;;5043519;28;20547;-78
2022/12/26 13:14:20;;;;;;;12.15;2.67;;;;;;;;;;5049208;28;20418;-80
2022/12/26 13:16:50;;;;;;;14.32;2.70;;;;;;;;;;5055011;28;20455;-79
2022/12/26 13:19:18;;;;;;;15.38;2.60;;;7.80;99.90;;;;;;5063414;28;20915;-79
2022/12/26 13:21:45;;;;;;;14.23;3.38;;;;;;;;;;5106322;28;20428;-79
2022/12/26 13:24:23;;;;;;;14.65;3.17;;;;;;;;;;5072194;28;20423;-79
2022/12/26 13:27:13;;;;;;;14.68;2.95;;;7.50;99.90;;;;;;5068768;28;20423;-79
2022/12/26 13:29:44;;;;;;;14.80;3.35;;;;;;;;;;5104164;28;20470;-79
2022/12/26 13:32:16;;;;;;;11.50;2.38;;;;;;;;;;5080371;28;20995;-78
2022/12/26 13:34:43;;;;;;;12.18;2.28;;;;;;;;;;5066559;28;20425;-78
2022/12/26 13:37:37;;;;;;;14.00;2.25;;;7.50;99.90;;;;;;5054338;28;20432;-78
2022/12/26 13:40:06;;;;;;;15.37;2.60;;;;;;;;;;5095139;27;20427;-79
2022/12/26 13:45:37;;;;;;;8.87;1.97;;;;;;;;;;5056940;28;20820;-77
2022/12/26 13:48:16;;;;;;;11.68;2.00;;;;;;;;;;5066131;28;20432;-78
2022/12/26 13:50:48;;;;;;;12.57;2.47;;;;;;;;;;5065432;28;20469;-78
2022/12/26 13:53:28;;;;;;;13.07;2.40;;;;;;;;;;5079569;28;20423;-77
2022/12/26 13:55:55;;;;;;;12.77;2.40;;;;;;;;;;5068842;28;20424;-77
2022/12/26 13:58:39;;;;;;;13.32;2.47;;;;;;;;;;5079257;28;20494;-78
2022/12/26 14:01:24;;;;;;;13.45;2.58;;;;;;;;;;5057072;28;20415;-78
2022/12/26 14:03:51;;;;;;;15.48;2.65;;;;;;;;;;5089612;28;20423;-78
2022/12/26 14:06:35;;;;;;;16.45;2.83;;;;;;;;;;5067308;28;20414;-78
2022/12/26 14:09:07;;;;;;;16.08;2.72;;;;;;;;;;5073784;28;20429;-78
2022/12/26 14:11:40;;;;;;;14.80;2.78;;;;;;;;;;5049832;28;20457;-78
2022/12/26 14:14:20;;;;;;;15.05;2.58;;;;;;;;;;5069424;28;20424;-78
2022/12/26 14:16:49;;;;;;;15.60;3.28;;;;;;;;;;5076385;28;20443;-78
2022/12/26 14:19:27;;;;;;;9.52;2.42;;;;;;;;;;5060155;28;20494;-78
2022/12/26 14:22:04;;;;;;;15.07;2.63;;;;;;;;;;5069278;28;20415;-77
2022/12/26 14:24:30;;;;;;;15.15;3.10;;;;;;;;;;5058170;28;20410;-78
2022/12/26 14:27:16;;;;;;;15.68;3.00;;;;;;;;;;5049940;28;20426;-77
2022/12/26 14:29:50;;;;;;;15.27;2.97;;;;;;;;;;5071598;28;20432;-78
2022/12/26 14:32:29;;;;;;;12.95;2.53;;;;;;;;;;5051093;28;20439;-78
2022/12/26 14:35:01;;;;;;;11.10;2.70;;;;;;;;;;5075205;28;20422;-77
2022/12/26 14:37:34;;;;;;;15.23;3.13;;;;;;;;;;5073990;28;20410;-78
2022/12/26 14:40:19;;;;;;;13.13;2.72;;;;;;;;;;5066097;28;20942;-78
2022/12/26 14:43:09;;;;;;;14.80;2.65;;;;;;;;;;5053361;28;20443;-78
2022/12/26 14:45:35;;;;;;;15.35;2.97;;;;;;;;;;5060406;28;20428;-78
2022/12/26 14:48:22;;;;;;;11.50;2.63;;;;;;;;;;5070558;28;20420;-78
2022/12/26 14:51:08;;;;;;;15.55;3.38;;;;;;;;;;5082427;28;20419;-78
2022/12/26 14:53:34;;;;;;;14.65;2.35;;;;;;;;;;5045610;28;20423;-78
2022/12/26 14:56:10;;;;;;;13.50;2.67;;;;;;;;;;5050316;28;20419;-77
2022/12/26 14:58:41;;;;;;;15.40;2.70;;;;;;;;;;5057120;28;20434;-77
2022/12/26 15:01:14;;;;;;;13.02;2.58;;;;;;;;;;5064838;28;20467;-76
2022/12/26 15:03:58;;;;;;;13.73;2.38;;;;;;;;;;5057603;28;20438;-76
2022/12/26 15:06:24;;;;;;;14.80;2.53;;;;;;;;;;5055798;28;20423;-77
2022/12/26 15:08:54;;;;;;;14.48;2.67;;;;;;;;;;5057113;28;20910;-76
2022/12/26 15:11:38;;;;;;;15.63;2.60;;;;;;;;;;5069984;28;20507;-77
2022/12/26 15:14:16;;;;;;;14.57;2.60;;;;;;;;;;5045170;28;20787;-77
2022/12/26 15:16:51;;;;;;;17.65;2.35;;;;;;;;;;5046998;28;20483;-77
2022/12/26 15:19:36;;;;;;;11.25;2.50;;;;;;;;;;5065784;28;20432;-77
2022/12/26 15:22:08;;;;;;;16.17;2.92;;;;;;;;;;5064050;28;20419;-76
2022/12/26 15:24:53;;;;;;;11.25;2.20;;;;;;;;;;5044884;28;20431;-77
2022/12/26 15:27:26;;;;;;;13.30;2.20;;;;;;;;;;5057786;28;20420;-77
2022/12/26 15:29:52;;;;;;;13.05;2.33;;;;;;;;;;5062389;28;20511;-77
2022/12/26 15:32:23;;;;;;;13.27;3.00;;;;;;;;;;5064004;28;20449;-76
2022/12/26 15:34:55;;;;;;;13.82;2.50;;;;;;;;;;5066747;28;20428;-76
2022/12/26 15:37:29;;;;;;;17.10;3.17;;;;;;;;;;5061498;28;20423;-77
2022/12/26 15:39:55;;;;;;;17.50;2.90;;;;;;;;;;5067596;28;20420;-76
2022/12/26 15:42:26;;;;;;;13.38;2.63;;;;;;;;;;5066446;28;20416;-77
2022/12/26 15:44:52;;;;;;;14.77;2.77;;;;;;;;;;5071536;28;20818;-78
2022/12/26 15:47:24;;;;;;;17.20;3.08;;;;;;;;;;5047961;28;20422;-76
2022/12/26 15:49:50;;;;;;;11.10;2.50;;;;;;;;;;5063677;28;20514;-76
2022/12/26 15:52:39;;;;;;;14.73;3.03;;;;;;;;;;5065477;28;20916;-76
2022/12/26 15:55:19;;;;;;;15.32;2.97;;;;;;;;;;5077247;28;20765;-76
2022/12/26 15:57:49;;;;;;;12.20;2.58;;;;;;;;;;5051833;28;20411;-76
2022/12/26 16:00:25;;;;;;;15.93;3.10;;;;;;;;;;5072562;28;20419;-75
2022/12/26 16:03:16;;;;;;;14.07;2.70;;;;;;;;;;5074655;28;20565;-75
2022/12/26 16:05:51;;;;;;;13.05;2.60;;;;;;;;;;5069776;28;20792;-75
2022/12/26 16:08:36;;;;;;;13.15;2.80;;;;;;;;;;5055746;28;20415;-75
2022/12/26 16:11:13;;;;;;;17.17;2.85;;;;;;;;;;5096453;27;20423;-76
2022/12/26 16:14:09;;;;;;;15.90;2.63;;;;;;;;;;5053925;28;20498;-75
2022/12/26 16:16:36;;;;;;;16.00;2.93;;;;;;;;;;5088539;27;20482;-75
2022/12/26 16:19:19;;;;;;;13.98;2.65;;;;;;;;;;5061152;28;20428;-75
2022/12/26 16:24:33;;;;;;;10.35;2.83;;;;;;;;;;5065542;28;21001;-75
2022/12/26 16:27:01;;;;;;;12.10;2.60;;;;;;;;;;5067385;28;20466;-75
2022/12/26 16:29:27;;;;;;;14.73;2.42;;;;;;;;;;5061290;28;20421;-75
2022/12/26 16:32:01;;;;;;;15.27;2.83;;;;;;;;;;5046742;28;20566;-75
2022/12/26 16:34:28;;;;;;;14.95;3.00;;;;;;;;;;5065810;28;20416;-75
2022/12/26 16:36:54;;;;;;;12.77;2.50;;;;;;;;;;5068819;28;20417;-75
2022/12/26 16:39:23;;;;;;;11.35;2.55;;;;;;;;;;5077561;28;20423;-75
2022/12/26 16:42:03;;;;;;;12.77;2.53;;;;;;;;;;5063555;28;20427;-75
2022/12/26 16:44:29;;;;;;;16.77;3.00;;;;;;;;;;5050397;28;20435;-74
2022/12/26 16:46:55;;;;;;;15.90;3.10;;;;;;;;;;5063480;28;20416;-74
2022/12/26 16:49:25;;;;;;;16.05;2.80;;;;;;;;;;5053543;28;20423;-74
2022/12/26 16:51:51;;;;;;;13.88;2.50;;;;;;;;;;5068490;28;20429;-74
2022/12/26 16:54:17;;;;;;;11.93;3.00;;;;;;;;;;5065989;28;20417;-74
2022/12/26 16:56:47;;;;;;;14.25;2.88;;;;;;;;;;5067388;28;20412;-74
2022/12/26 16:59:13;;;;;;;12.95;2.83;;;;;;;;;;5081183;28;20417;-74